Krisjanis Valdemars — V7LI9 — position and weather

sailwx.info

Track history (hours):
 
Tides and Currents Weather Stations Pressure Air Temp Water Temp Dewpoint Dewpoint Depression Visibility Wind Speed Wind Dir Waves Ship Positions

Krisjanis Valdemars

Last reported at 2018-Aug-20 20:17 UTC. Time now 2018-Aug-21 01:55 UTC.
Position N 58°51' E 004°29'.

Length 183 m; draft 7.2 m.

Type: Ship. MMSI: 538002757.

Date/timePositionNaut miles runAvg speedWind from/ knotsBaromVisibWave heightAir tempDewpointWater temp
2018-Aug-20 20:17N 58°51' E 004°29'2 9.9
2018-Aug-20 20:03N 58°50' E 004°32'110.1
2018-Aug-20 20:00N 58°49' E 004°33'610.7
2018-Aug-20 19:25N 58°45' E 004°41'511.0
2018-Aug-20 18:58N 58°41' E 004°47'611.0
2018-Aug-20 18:27N 58°37' E 004°55'410.8
2018-Aug-20 18:03N 58°34' E 005°01'110.7
2018-Aug-20 18:00N 58°33' E 005°01'610.8
2018-Aug-20 17:28N 58°29' E 005°09'410.6
2018-Aug-20 17:03N 58°26' E 005°15'010.6
2018-Aug-20 17:00N 58°26' E 005°16'510.4
2018-Aug-20 16:30N 58°22' E 005°22'510.4
2018-Aug-20 16:04N 58°19' E 005°29'110.5
2018-Aug-20 16:00N 58°18' E 005°29'510.6
2018-Aug-20 15:30N 58°15' E 005°37'510.7
2018-Aug-20 15:03N 58°12' E 005°44'110.6
2018-Aug-20 15:00N 58°12' E 005°45'1010.5
2018-Aug-20 14:03N 58°05' E 005°59'010.7
2018-Aug-20 14:00N 58°04' E 005°60'510.4
2018-Aug-20 13:30N 58°01' E 006°07'410.0
2018-Aug-20 13:03N 57°58' E 006°13'110.1
2018-Aug-20 13:00N 57°58' E 006°14'510.3
2018-Aug-20 12:30N 57°55' E 006°22'810.4
2018-Aug-20 11:45N 57°50' E 006°33'312.1
2018-Aug-20 11:30N 57°49' E 006°39'613.0
2018-Aug-20 11:03N 57°48' E 006°50'113.9
2018-Aug-20 11:00N 57°49' E 006°51'713.9
2018-Aug-20 10:30N 57°48' E 007°04'612.7
2018-Aug-20 10:03N 57°47' E 007°15'0 9.7
2018-Aug-20 10:00N 57°47' E 007°15'5 9.7
2018-Aug-20 09:30N 57°47' E 007°25'5 9.6
2018-Aug-20 09:02N 57°46' E 007°33'0 9.8
2018-Aug-20 08:59N 57°46' E 007°34'510.1
2018-Aug-20 08:30N 57°46' E 007°43'510.3
2018-Aug-20 08:01N 57°46' E 007°52'010.5
2018-Aug-20 08:00N 57°46' E 007°53'510.7
2018-Aug-20 07:30N 57°46' E 008°03'510.7
2018-Aug-20 07:03N 57°46' E 008°12'112.9
2018-Aug-20 07:00N 57°46' E 008°13'4710.2
2018-Aug-20 02:23N 57°48' E 009°41'410.1
2018-Aug-20 01:59N 57°48' E 009°49'610.1
2018-Aug-20 01:25N 57°48' E 009°60'6 9.9
2018-Aug-20 00:48N 57°49' E 010°11'12 9.7
2018-Aug-19 23:33N 57°49' E 010°34'1 9.9
2018-Aug-19 23:29N 57°49' E 010°35'5 9.9
2018-Aug-19 23:00N 57°49' E 010°44'4 9.0
2018-Aug-19 22:30N 57°48' E 010°52'4 8.5
2018-Aug-19 22:00N 57°44' E 010°54'5 9.4
2018-Aug-19 21:30N 57°41' E 010°47'3 5.8
2018-Aug-19 21:01N 57°40' E 010°42'0 0.1
2018-Aug-19 20:30N 57°40' E 010°42'0 0.0
2018-Aug-19 19:54N 57°40' E 010°42'0 0.0
2018-Aug-19 19:30N 57°40' E 010°42'0 0.0
2018-Aug-19 19:00N 57°40' E 010°42'0 0.0
2018-Aug-19 18:30N 57°40' E 010°42'0 0.0
2018-Aug-19 18:00N 57°40' E 010°42'0 0.0
2018-Aug-19 17:27N 57°40' E 010°42'0 0.0
2018-Aug-19 17:00N 57°40' E 010°42'0 0.0
2018-Aug-19 16:18N 57°40' E 010°42'0 0.0
2018-Aug-19 16:00N 57°40' E 010°42'0 0.0
2018-Aug-19 15:30N 57°40' E 010°42'0 0.0
2018-Aug-19 14:54N 57°40' E 010°42'0 0.0
2018-Aug-19 14:30N 57°40' E 010°42'0 0.0
2018-Aug-19 14:00N 57°40' E 010°42'0 0.0
2018-Aug-19 13:21N 57°40' E 010°42'0 0.0
2018-Aug-19 13:00N 57°40' E 010°42'0 0.0
2018-Aug-19 12:27N 57°40' E 010°42'0 0.0
2018-Aug-19 11:57N 57°40' E 010°42'0 0.0
2018-Aug-19 08:57N 57°40' E 010°42'0 0.0
2018-Aug-19 08:27N 57°40' E 010°42'0 0.0
2018-Aug-19 08:00N 57°40' E 010°42'0 0.0
2018-Aug-19 07:27N 57°40' E 010°42'0 0.0
2018-Aug-19 07:00N 57°40' E 010°42'0 0.0
2018-Aug-19 06:30N 57°40' E 010°42'0 1.0
2018-Aug-19 06:00N 57°41' E 010°42'3 6.6
2018-Aug-19 05:30N 57°44' E 010°46'4 8.2
2018-Aug-19 05:00N 57°48' E 010°44'5 9.0
2018-Aug-19 04:30N 57°49' E 010°35'612.0
2018-Aug-19 04:00N 57°49' E 010°24'611.4
2018-Aug-19 03:27N 57°49' E 010°12'3311.2
2018-Aug-19 00:33N 57°40' E 009°13'211.6
2018-Aug-19 00:24N 57°39' E 009°11'611.6
2018-Aug-18 23:55N 57°36' E 009°02'41510.0
2018-Aug-17 06:28N 51°47' E 002°37'612.4
2018-Aug-17 06:00N 51°42' E 002°31'612.3
2018-Aug-17 05:30N 51°37' E 002°25'612.3
2018-Aug-17 05:00N 51°32' E 002°18'612.1
2018-Aug-17 04:30N 51°28' E 002°12'611.7
2018-Aug-17 04:01N 51°23' E 002°07'611.4
2018-Aug-17 03:30N 51°17' E 002°06'510.8
2018-Aug-17 03:00N 51°13' E 002°02'612.2
2018-Aug-17 02:30N 51°10' E 001°53'611.6
2018-Aug-17 02:01N 51°06' E 001°46'611.6
2018-Aug-17 01:30N 51°01' E 001°41'510.0
2018-Aug-17 01:00N 50°59' E 001°34'5 9.8
2018-Aug-17 00:30N 50°55' E 001°29'5 9.2
2018-Aug-17 00:00N 50°51' E 001°26'5 9.1
2018-Aug-16 23:30N 50°47' E 001°24'5 9.0
2018-Aug-16 23:00N 50°42' E 001°21'5 9.2
2018-Aug-16 22:30N 50°39' E 001°16'5 9.6
2018-Aug-16 22:00N 50°36' E 001°11'7 9.7
2018-Aug-16 21:15N 50°32' E 001°01'3 9.7
2018-Aug-16 20:55N 50°30' E 000°56'18 9.6
2018-Aug-16 19:01N 50°24' E 000°29'8 9.5
2018-Aug-16 18:10N 50°22' E 000°17'2 9.4
2018-Aug-16 17:59N 50°22' E 000°15'5 9.4
2018-Aug-16 17:29N 50°20' E 000°08'5 9.6
2018-Aug-16 17:00N 50°19' E 000°01'5 9.8
2018-Aug-16 16:29N 50°18' W 000°07'5 9.7
2018-Aug-16 15:58N 50°17' W 000°15'8 9.3
2018-Aug-16 15:06N 50°14' W 000°27'2 8.0
2018-Aug-16 14:52N 50°14' W 000°30'512.6
2018-Aug-16 14:28N 50°13' W 000°37'612.7
2018-Aug-16 14:00N 50°11' W 000°46'6813.7
2018-Aug-16 09:01N 49°53' W 002°29'811.8
2018-Aug-16 08:22N 49°51' W 002°40'411.5
2018-Aug-16 08:00N 49°49' W 002°46'106 9.9
2018-Aug-15 21:14N 48°57' W 005°09'310.9
2018-Aug-15 21:00N 48°56' W 005°12'711.1
2018-Aug-15 20:24N 48°52' W 005°21'512.1
2018-Aug-15 19:57N 48°50' W 005°28'4811.1
2018-Aug-15 15:38N 48°04' W 005°50'10 1.3
2018-Aug-15 07:25N 47°55' W 005°58'1 2.0
2018-Aug-15 06:55N 47°55' W 005°60'7 1.0
2018-Aug-14 23:51N 47°54' W 006°10'6 2.7
2018-Aug-14 21:33N 47°60' W 006°09'  
2018-Aug-11 21:47N 45°13' W 008°21'612.9
2018-Aug-11 21:20N 45°08' W 008°26'3 8.6
2018-Aug-11 21:00N 45°06' W 008°28'3510.4
2018-Aug-11 17:37N 44°37' W 008°56'  
Track history (hours):
 
Tides and Currents Weather Stations Pressure Air Temp Water Temp Dewpoint Dewpoint Depression Visibility Wind Speed Wind Dir Waves Ship Positions

Krisjanis Valdemars

Last reported at 2018-Aug-20 20:17 UTC. Time now 2018-Aug-21 01:55 UTC.
Position N 58°51' E 004°29'.

Length 183 m; draft 7.2 m.

Type: Ship. MMSI: 538002757.

Date/timePositionNaut miles runAvg speedWind from/ knotsBaromVisibWave heightAir tempDewpointWater temp
2018-Aug-20 20:17N 58°51' E 004°29'2 9.9
2018-Aug-20 20:03N 58°50' E 004°32'110.1
2018-Aug-20 20:00N 58°49' E 004°33'610.7
2018-Aug-20 19:25N 58°45' E 004°41'511.0
2018-Aug-20 18:58N 58°41' E 004°47'611.0
2018-Aug-20 18:27N 58°37' E 004°55'410.8
2018-Aug-20 18:03N 58°34' E 005°01'110.7
2018-Aug-20 18:00N 58°33' E 005°01'610.8
2018-Aug-20 17:28N 58°29' E 005°09'410.6
2018-Aug-20 17:03N 58°26' E 005°15'010.6
2018-Aug-20 17:00N 58°26' E 005°16'510.4
2018-Aug-20 16:30N 58°22' E 005°22'510.4
2018-Aug-20 16:04N 58°19' E 005°29'110.5
2018-Aug-20 16:00N 58°18' E 005°29'510.6
2018-Aug-20 15:30N 58°15' E 005°37'510.7
2018-Aug-20 15:03N 58°12' E 005°44'110.6
2018-Aug-20 15:00N 58°12' E 005°45'1010.5
2018-Aug-20 14:03N 58°05' E 005°59'010.7
2018-Aug-20 14:00N 58°04' E 005°60'510.4
2018-Aug-20 13:30N 58°01' E 006°07'410.0
2018-Aug-20 13:03N 57°58' E 006°13'110.1
2018-Aug-20 13:00N 57°58' E 006°14'510.3
2018-Aug-20 12:30N 57°55' E 006°22'810.4
2018-Aug-20 11:45N 57°50' E 006°33'312.1
2018-Aug-20 11:30N 57°49' E 006°39'613.0
2018-Aug-20 11:03N 57°48' E 006°50'113.9
2018-Aug-20 11:00N 57°49' E 006°51'713.9
2018-Aug-20 10:30N 57°48' E 007°04'612.7
2018-Aug-20 10:03N 57°47' E 007°15'0 9.7
2018-Aug-20 10:00N 57°47' E 007°15'5 9.7
2018-Aug-20 09:30N 57°47' E 007°25'5 9.6
2018-Aug-20 09:02N 57°46' E 007°33'0 9.8
2018-Aug-20 08:59N 57°46' E 007°34'510.1
2018-Aug-20 08:30N 57°46' E 007°43'510.3
2018-Aug-20 08:01N 57°46' E 007°52'010.5
2018-Aug-20 08:00N 57°46' E 007°53'510.7
2018-Aug-20 07:30N 57°46' E 008°03'510.7
2018-Aug-20 07:03N 57°46' E 008°12'112.9
2018-Aug-20 07:00N 57°46' E 008°13'4710.2
2018-Aug-20 02:23N 57°48' E 009°41'410.1
2018-Aug-20 01:59N 57°48' E 009°49'610.1
2018-Aug-20 01:25N 57°48' E 009°60'6 9.9
2018-Aug-20 00:48N 57°49' E 010°11'12 9.7
2018-Aug-19 23:33N 57°49' E 010°34'1 9.9
2018-Aug-19 23:29N 57°49' E 010°35'5 9.9
2018-Aug-19 23:00N 57°49' E 010°44'4 9.0
2018-Aug-19 22:30N 57°48' E 010°52'4 8.5
2018-Aug-19 22:00N 57°44' E 010°54'5 9.4
2018-Aug-19 21:30N 57°41' E 010°47'3 5.8
2018-Aug-19 21:01N 57°40' E 010°42'0 0.1
2018-Aug-19 20:30N 57°40' E 010°42'0 0.0
2018-Aug-19 19:54N 57°40' E 010°42'0 0.0
2018-Aug-19 19:30N 57°40' E 010°42'0 0.0
2018-Aug-19 19:00N 57°40' E 010°42'0 0.0
2018-Aug-19 18:30N 57°40' E 010°42'0 0.0
2018-Aug-19 18:00N 57°40' E 010°42'0 0.0
2018-Aug-19 17:27N 57°40' E 010°42'0 0.0
2018-Aug-19 17:00N 57°40' E 010°42'0 0.0
2018-Aug-19 16:18N 57°40' E 010°42'0 0.0
2018-Aug-19 16:00N 57°40' E 010°42'0 0.0
2018-Aug-19 15:30N 57°40' E 010°42'0 0.0
2018-Aug-19 14:54N 57°40' E 010°42'0 0.0
2018-Aug-19 14:30N 57°40' E 010°42'0 0.0
2018-Aug-19 14:00N 57°40' E 010°42'0 0.0
2018-Aug-19 13:21N 57°40' E 010°42'0 0.0
2018-Aug-19 13:00N 57°40' E 010°42'0 0.0
2018-Aug-19 12:27N 57°40' E 010°42'0 0.0
2018-Aug-19 11:57N 57°40' E 010°42'0 0.0
2018-Aug-19 08:57N 57°40' E 010°42'0 0.0
2018-Aug-19 08:27N 57°40' E 010°42'0 0.0
2018-Aug-19 08:00N 57°40' E 010°42'0 0.0
2018-Aug-19 07:27N 57°40' E 010°42'0 0.0
2018-Aug-19 07:00N 57°40' E 010°42'0 0.0
2018-Aug-19 06:30N 57°40' E 010°42'0 1.0
2018-Aug-19 06:00N 57°41' E 010°42'3 6.6
2018-Aug-19 05:30N 57°44' E 010°46'4 8.2
2018-Aug-19 05:00N 57°48' E 010°44'5 9.0
2018-Aug-19 04:30N 57°49' E 010°35'612.0
2018-Aug-19 04:00N 57°49' E 010°24'611.4
2018-Aug-19 03:27N 57°49' E 010°12'3311.2
2018-Aug-19 00:33N 57°40' E 009°13'211.6
2018-Aug-19 00:24N 57°39' E 009°11'611.6
2018-Aug-18 23:55N 57°36' E 009°02'41510.0
2018-Aug-17 06:28N 51°47' E 002°37'612.4
2018-Aug-17 06:00N 51°42' E 002°31'612.3
2018-Aug-17 05:30N 51°37' E 002°25'612.3
2018-Aug-17 05:00N 51°32' E 002°18'612.1
2018-Aug-17 04:30N 51°28' E 002°12'611.7
2018-Aug-17 04:01N 51°23' E 002°07'611.4
2018-Aug-17 03:30N 51°17' E 002°06'510.8
2018-Aug-17 03:00N 51°13' E 002°02'612.2
2018-Aug-17 02:30N 51°10' E 001°53'611.6
2018-Aug-17 02:01N 51°06' E 001°46'611.6
2018-Aug-17 01:30N 51°01' E 001°41'510.0
2018-Aug-17 01:00N 50°59' E 001°34'5 9.8
2018-Aug-17 00:30N 50°55' E 001°29'5 9.2
2018-Aug-17 00:00N 50°51' E 001°26'5 9.1
2018-Aug-16 23:30N 50°47' E 001°24'5 9.0
2018-Aug-16 23:00N 50°42' E 001°21'5 9.2
2018-Aug-16 22:30N 50°39' E 001°16'5 9.6
2018-Aug-16 22:00N 50°36' E 001°11'7 9.7
2018-Aug-16 21:15N 50°32' E 001°01'3 9.7
2018-Aug-16 20:55N 50°30' E 000°56'18 9.6
2018-Aug-16 19:01N 50°24' E 000°29'8 9.5
2018-Aug-16 18:10N 50°22' E 000°17'2 9.4
2018-Aug-16 17:59N 50°22' E 000°15'5 9.4
2018-Aug-16 17:29N 50°20' E 000°08'5 9.6
2018-Aug-16 17:00N 50°19' E 000°01'5 9.8
2018-Aug-16 16:29N 50°18' W 000°07'5 9.7
2018-Aug-16 15:58N 50°17' W 000°15'8 9.3
2018-Aug-16 15:06N 50°14' W 000°27'2 8.0
2018-Aug-16 14:52N 50°14' W 000°30'512.6
2018-Aug-16 14:28N 50°13' W 000°37'612.7
2018-Aug-16 14:00N 50°11' W 000°46'6813.7
2018-Aug-16 09:01N 49°53' W 002°29'811.8
2018-Aug-16 08:22N 49°51' W 002°40'411.5
2018-Aug-16 08:00N 49°49' W 002°46'106 9.9
2018-Aug-15 21:14N 48°57' W 005°09'310.9
2018-Aug-15 21:00N 48°56' W 005°12'711.1
2018-Aug-15 20:24N 48°52' W 005°21'512.1
2018-Aug-15 19:57N 48°50' W 005°28'4811.1
2018-Aug-15 15:38N 48°04' W 005°50'10 1.3
2018-Aug-15 07:25N 47°55' W 005°58'1 2.0
2018-Aug-15 06:55N 47°55' W 005°60'7 1.0
2018-Aug-14 23:51N 47°54' W 006°10'6 2.7
2018-Aug-14 21:33N 47°60' W 006°09'  
2018-Aug-11 21:47N 45°13' W 008°21'612.9
2018-Aug-11 21:20N 45°08' W 008°26'3 8.6
2018-Aug-11 21:00N 45°06' W 008°28'3510.4
2018-Aug-11 17:37N 44°37' W 008°56'  

Dump ship's entire track history